sensor_id;sensor_type;location;lat;lon;timestamp;P1;durP1;ratioP1;P2;durP2;ratioP2
49980;SDS011;35871;51.594;7.138;2022-08-23T05:59:58;5.70;;;4.65;;
49980;SDS011;35871;51.594;7.138;2022-08-23T06:05:00;4.50;;;3.70;;
49980;SDS011;35871;51.594;7.138;2022-08-23T06:10:02;4.40;;;3.08;;
49980;SDS011;35871;51.594;7.138;2022-08-23T06:15:03;4.18;;;3.60;;
49980;SDS011;35871;51.594;7.138;2022-08-23T06:20:05;4.50;;;3.15;;
49980;SDS011;35871;51.594;7.138;2022-08-23T06:25:07;5.65;;;3.53;;
49980;SDS011;35871;51.594;7.138;2022-08-23T06:30:08;6.85;;;3.60;;
49980;SDS011;35871;51.594;7.138;2022-08-23T06:35:09;3.90;;;3.10;;
49980;SDS011;35871;51.594;7.138;2022-08-23T06:40:10;2.45;;;2.25;;
49980;SDS011;35871;51.594;7.138;2022-08-23T06:45:11;2.63;;;2.42;;
49980;SDS011;35871;51.594;7.138;2022-08-23T06:50:13;4.40;;;2.75;;
49980;SDS011;35871;51.594;7.138;2022-08-23T06:55:14;4.40;;;2.80;;
49980;SDS011;35871;51.594;7.138;2022-08-23T07:00:15;7.47;;;5.05;;
49980;SDS011;35871;51.594;7.138;2022-08-23T07:05:16;4.82;;;3.22;;
49980;SDS011;35871;51.594;7.138;2022-08-23T07:10:17;5.32;;;3.20;;
49980;SDS011;35871;51.594;7.138;2022-08-23T07:15:18;16.88;;;3.55;;
49980;SDS011;35871;51.594;7.138;2022-08-23T07:20:20;5.35;;;3.13;;
49980;SDS011;35871;51.594;7.138;2022-08-23T07:25:27;5.13;;;2.83;;
49980;SDS011;35871;51.594;7.138;2022-08-23T07:30:43;6.32;;;3.22;;
49980;SDS011;35871;51.594;7.138;2022-08-23T07:35:47;7.05;;;3.45;;
49980;SDS011;35871;51.594;7.138;2022-08-23T07:40:48;5.60;;;3.42;;
49980;SDS011;35871;51.594;7.138;2022-08-23T07:45:50;6.90;;;4.03;;
49980;SDS011;35871;51.594;7.138;2022-08-23T07:50:51;5.38;;;3.08;;
49980;SDS011;35871;51.594;7.138;2022-08-23T07:55:53;6.07;;;3.40;;
49980;SDS011;35871;51.594;7.138;2022-08-23T08:00:54;6.43;;;3.45;;
49980;SDS011;35871;51.594;7.138;2022-08-23T08:05:55;6.60;;;4.13;;
49980;SDS011;35871;51.594;7.138;2022-08-23T08:10:56;4.68;;;3.20;;
49980;SDS011;35871;51.594;7.138;2022-08-23T08:15:57;7.18;;;3.88;;
49980;SDS011;35871;51.594;7.138;2022-08-23T08:20:58;5.63;;;4.50;;
49980;SDS011;35871;51.594;7.138;2022-08-23T08:26:01;6.07;;;3.80;;
49980;SDS011;35871;51.594;7.138;2022-08-23T08:31:07;7.43;;;3.85;;
49980;SDS011;35871;51.594;7.138;2022-08-23T08:36:10;6.45;;;4.10;;
49980;SDS011;35871;51.594;7.138;2022-08-23T08:42:14;6.20;;;3.83;;
49980;SDS011;35871;51.594;7.138;2022-08-23T08:46:52;8.35;;;4.22;;
49980;SDS011;35871;51.594;7.138;2022-08-23T08:51:57;5.93;;;3.80;;
49980;SDS011;35871;51.594;7.138;2022-08-23T08:57:00;7.35;;;3.70;;
49980;SDS011;35871;51.594;7.138;2022-08-23T09:02:05;7.35;;;4.15;;
49980;SDS011;35871;51.594;7.138;2022-08-23T09:07:22;6.72;;;4.60;;
49980;SDS011;35871;51.594;7.138;2022-08-23T09:12:45;6.00;;;4.47;;
49980;SDS011;35871;51.594;7.138;2022-08-23T09:17:56;10.50;;;6.50;;
49980;SDS011;35871;51.594;7.138;2022-08-23T09:23:08;5.88;;;3.95;;
49980;SDS011;35871;51.594;7.138;2022-08-23T09:28:11;7.35;;;4.53;;
49980;SDS011;35871;51.594;7.138;2022-08-23T09:33:21;8.70;;;4.13;;
49980;SDS011;35871;51.594;7.138;2022-08-23T09:38:26;6.72;;;4.20;;
49980;SDS011;35871;51.594;7.138;2022-08-23T09:43:30;5.85;;;4.10;;
49980;SDS011;35871;51.594;7.138;2022-08-23T09:48:43;8.00;;;3.97;;
49980;SDS011;35871;51.594;7.138;2022-08-23T10:00:17;7.28;;;3.88;;
49980;SDS011;35871;51.594;7.138;2022-08-23T10:04:40;6.18;;;3.50;;
49980;SDS011;35871;51.594;7.138;2022-08-23T10:09:44;7.97;;;4.72;;
49980;SDS011;35871;51.594;7.138;2022-08-23T10:14:45;6.05;;;3.72;;
49980;SDS011;35871;51.594;7.138;2022-08-23T10:19:55;5.43;;;3.50;;
49980;SDS011;35871;51.594;7.138;2022-08-23T10:25:06;7.32;;;3.78;;
49980;SDS011;35871;51.594;7.138;2022-08-23T10:30:12;7.90;;;4.50;;
49980;SDS011;35871;51.594;7.138;2022-08-23T10:45:47;4.35;;;3.55;;
49980;SDS011;35871;51.594;7.138;2022-08-23T10:50:53;7.18;;;4.50;;
49980;SDS011;35871;51.594;7.138;2022-08-23T10:55:55;9.90;;;5.05;;
49980;SDS011;35871;51.594;7.138;2022-08-23T11:01:03;11.33;;;5.67;;
49980;SDS011;35871;51.594;7.138;2022-08-23T11:16:44;6.43;;;3.97;;
49980;SDS011;35871;51.594;7.138;2022-08-23T11:21:46;8.30;;;4.30;;
49980;SDS011;35871;51.594;7.138;2022-08-23T11:32:11;7.75;;;4.28;;
49980;SDS011;35871;51.594;7.138;2022-08-23T11:42:19;6.50;;;4.10;;
49980;SDS011;35871;51.594;7.138;2022-08-23T11:47:26;6.10;;;4.57;;
49980;SDS011;35871;51.594;7.138;2022-08-23T11:52:45;9.38;;;5.85;;
49980;SDS011;35871;51.594;7.138;2022-08-23T12:02:58;6.70;;;4.80;;
49980;SDS011;35871;51.594;7.138;2022-08-23T12:18:18;7.47;;;3.80;;
49980;SDS011;35871;51.594;7.138;2022-08-23T12:23:20;4.88;;;3.63;;
49980;SDS011;35871;51.594;7.138;2022-08-23T12:28:45;4.78;;;3.50;;
49980;SDS011;35871;51.594;7.138;2022-08-23T12:39:00;4.60;;;3.05;;
49980;SDS011;35871;51.594;7.138;2022-08-23T12:44:04;4.05;;;2.80;;
49980;SDS011;35871;51.594;7.138;2022-08-23T12:49:08;4.20;;;2.75;;
49980;SDS011;35871;51.594;7.138;2022-08-23T12:54:15;5.60;;;2.88;;
49980;SDS011;35871;51.594;7.138;2022-08-23T12:59:27;4.47;;;2.90;;
49980;SDS011;35871;51.594;7.138;2022-08-23T13:04:31;6.75;;;2.70;;
49980;SDS011;35871;51.594;7.138;2022-08-23T13:09:38;4.40;;;2.70;;
49980;SDS011;35871;51.594;7.138;2022-08-23T13:19:40;5.95;;;3.45;;
49980;SDS011;35871;51.594;7.138;2022-08-23T13:35:27;6.00;;;2.95;;
49980;SDS011;35871;51.594;7.138;2022-08-23T13:40:37;4.30;;;2.90;;
49980;SDS011;35871;51.594;7.138;2022-08-23T13:45:47;5.03;;;2.85;;
49980;SDS011;35871;51.594;7.138;2022-08-23T13:50:49;6.80;;;3.08;;
49980;SDS011;35871;51.594;7.138;2022-08-23T13:55:51;4.18;;;2.58;;
49980;SDS011;35871;51.594;7.138;2022-08-23T14:00:53;5.80;;;3.22;;
49980;SDS011;35871;51.594;7.138;2022-08-23T14:05:55;4.78;;;3.03;;
49980;SDS011;35871;51.594;7.138;2022-08-23T14:10:56;6.47;;;3.08;;
49980;SDS011;35871;51.594;7.138;2022-08-23T14:16:01;3.20;;;2.72;;
49980;SDS011;35871;51.594;7.138;2022-08-23T14:21:03;5.90;;;3.67;;
49980;SDS011;35871;51.594;7.138;2022-08-23T14:26:04;4.15;;;2.40;;
49980;SDS011;35871;51.594;7.138;2022-08-23T14:31:05;8.70;;;3.63;;
49980;SDS011;35871;51.594;7.138;2022-08-23T14:36:06;6.30;;;3.95;;
49980;SDS011;35871;51.594;7.138;2022-08-23T14:41:08;6.10;;;3.03;;
49980;SDS011;35871;51.594;7.138;2022-08-23T14:46:10;6.45;;;2.75;;
49980;SDS011;35871;51.594;7.138;2022-08-23T14:51:16;7.10;;;3.13;;
49980;SDS011;35871;51.594;7.138;2022-08-23T14:56:21;4.60;;;3.40;;
49980;SDS011;35871;51.594;7.138;2022-08-23T15:01:22;4.68;;;3.97;;
49980;SDS011;35871;51.594;7.138;2022-08-23T15:06:23;4.13;;;3.22;;
49980;SDS011;35871;51.594;7.138;2022-08-23T15:11:24;18.30;;;5.07;;
49980;SDS011;35871;51.594;7.138;2022-08-23T15:16:27;6.57;;;5.13;;
49980;SDS011;35871;51.594;7.138;2022-08-23T15:21:28;5.88;;;3.10;;
49980;SDS011;35871;51.594;7.138;2022-08-23T15:26:29;7.30;;;3.33;;
49980;SDS011;35871;51.594;7.138;2022-08-23T15:31:39;4.80;;;2.70;;
49980;SDS011;35871;51.594;7.138;2022-08-23T15:36:41;8.45;;;3.80;;
49980;SDS011;35871;51.594;7.138;2022-08-23T15:41:42;5.32;;;3.20;;
49980;SDS011;35871;51.594;7.138;2022-08-23T15:46:44;5.55;;;3.15;;
49980;SDS011;35871;51.594;7.138;2022-08-23T15:51:46;4.95;;;3.10;;
49980;SDS011;35871;51.594;7.138;2022-08-23T15:56:47;5.68;;;2.83;;
49980;SDS011;35871;51.594;7.138;2022-08-23T16:01:49;7.43;;;3.17;;
49980;SDS011;35871;51.594;7.138;2022-08-23T16:06:50;5.63;;;3.40;;
49980;SDS011;35871;51.594;7.138;2022-08-23T16:11:51;5.10;;;2.85;;
49980;SDS011;35871;51.594;7.138;2022-08-23T16:16:52;6.25;;;3.60;;
49980;SDS011;35871;51.594;7.138;2022-08-23T16:21:54;5.40;;;2.65;;
49980;SDS011;35871;51.594;7.138;2022-08-23T16:26:55;7.13;;;4.65;;
49980;SDS011;35871;51.594;7.138;2022-08-23T16:31:56;5.88;;;3.97;;
49980;SDS011;35871;51.594;7.138;2022-08-23T16:36:58;5.43;;;3.20;;
49980;SDS011;35871;51.594;7.138;2022-08-23T16:42:01;4.07;;;2.60;;
49980;SDS011;35871;51.594;7.138;2022-08-23T16:47:04;4.72;;;3.05;;
49980;SDS011;35871;51.594;7.138;2022-08-23T16:52:06;4.40;;;2.90;;
49980;SDS011;35871;51.594;7.138;2022-08-23T16:57:07;3.13;;;2.67;;
49980;SDS011;35871;51.594;7.138;2022-08-23T17:02:08;9.38;;;2.90;;
49980;SDS011;35871;51.594;7.138;2022-08-23T17:07:19;5.47;;;2.60;;
49980;SDS011;35871;51.594;7.138;2022-08-23T17:12:20;4.03;;;2.90;;
49980;SDS011;35871;51.594;7.138;2022-08-23T17:17:26;6.05;;;2.80;;
49980;SDS011;35871;51.594;7.138;2022-08-23T17:22:32;5.10;;;2.50;;
49980;SDS011;35871;51.594;7.138;2022-08-23T17:27:34;6.60;;;2.47;;
49980;SDS011;35871;51.594;7.138;2022-08-23T17:32:36;7.65;;;2.33;;
49980;SDS011;35871;51.594;7.138;2022-08-23T17:37:38;5.43;;;3.22;;
49980;SDS011;35871;51.594;7.138;2022-08-23T17:42:39;5.65;;;2.50;;
49980;SDS011;35871;51.594;7.138;2022-08-23T17:47:48;5.03;;;2.30;;
49980;SDS011;35871;51.594;7.138;2022-08-23T17:52:49;6.07;;;2.15;;
49980;SDS011;35871;51.594;7.138;2022-08-23T17:57:50;7.60;;;2.53;;
49980;SDS011;35871;51.594;7.138;2022-08-23T18:02:51;5.72;;;3.33;;
49980;SDS011;35871;51.594;7.138;2022-08-23T18:07:53;4.15;;;2.50;;
49980;SDS011;35871;51.594;7.138;2022-08-23T18:12:54;3.97;;;2.25;;
49980;SDS011;35871;51.594;7.138;2022-08-23T18:17:56;6.45;;;2.08;;
49980;SDS011;35871;51.594;7.138;2022-08-23T18:22:58;4.63;;;2.00;;
49980;SDS011;35871;51.594;7.138;2022-08-23T18:27:59;3.45;;;2.40;;
49980;SDS011;35871;51.594;7.138;2022-08-23T18:33:07;6.22;;;2.60;;
49980;SDS011;35871;51.594;7.138;2022-08-23T18:38:08;3.10;;;1.90;;
49980;SDS011;35871;51.594;7.138;2022-08-23T18:43:15;4.40;;;2.60;;
49980;SDS011;35871;51.594;7.138;2022-08-23T18:48:17;3.83;;;2.60;;
49980;SDS011;35871;51.594;7.138;2022-08-23T18:53:18;5.32;;;3.00;;
49980;SDS011;35871;51.594;7.138;2022-08-23T18:58:19;4.32;;;3.00;;
49980;SDS011;35871;51.594;7.138;2022-08-23T19:03:20;5.43;;;2.85;;
49980;SDS011;35871;51.594;7.138;2022-08-23T19:08:22;5.40;;;3.08;;
49980;SDS011;35871;51.594;7.138;2022-08-23T19:13:23;5.15;;;3.10;;
49980;SDS011;35871;51.594;7.138;2022-08-23T19:18:24;4.57;;;3.20;;
49980;SDS011;35871;51.594;7.138;2022-08-23T19:23:25;6.68;;;3.75;;
